Time;durP1;ratioP1;P1;durP2;ratioP2;P2;SDS_P1;SDS_P2;PMS_P1;PMS_P2;Temp;Humidity;BMP_temperature;BMP_pressure;BME280_temperature;BME280_humidity;BME280_pressure;Samples;Min_cycle;Max_cycle;Signal;HPM_P1;HPM_P2
2022/01/28 00:00:36;;;;;;;11.03;3.10;;;;;;;;;;5075535;28;20309;-74
2022/01/28 00:03:07;;;;;;;13.63;2.83;;;;;;;;;;5069948;28;20213;-72
2022/01/28 00:05:37;;;;;;;12.47;2.90;;;;;;;;;;5074928;28;20209;-74
2022/01/28 00:08:07;;;;;;;12.77;3.00;;;;;;;;;;5074864;28;20732;-72
2022/01/28 00:10:38;;;;;;;10.50;2.90;;;;;;;;;;5075113;28;20190;-72
2022/01/28 00:13:22;;;;;;;11.20;2.83;;;;;;;;;;5072856;28;20657;-74
2022/01/28 00:16:11;;;;;;;14.77;2.97;;;;;;;;;;5055335;28;20184;-72
2022/01/28 00:19:04;;;;;;;16.97;3.07;;;;;;;;;;5054591;28;20230;-76
2022/01/28 00:38:30;;;;;;;13.40;3.23;;;;;;;;;;5013966;28;20634;-73
2022/01/28 00:40:59;;;;;;;8.70;2.60;;;;;;;;;;5012659;28;20209;-73
2022/01/28 00:43:28;;;;;;;12.33;2.43;;;;;;;;;;5036086;28;20653;-72
2022/01/28 00:45:57;;;;;;;11.87;3.03;;;;;;;;;;5054572;28;20223;-74
2022/01/28 00:48:25;;;;;;;17.30;3.73;;;;;;;;;;5054288;28;20277;-74
2022/01/28 00:50:54;;;;;;;16.73;3.27;;;;;;;;;;5054430;28;20206;-72
2022/01/28 00:53:22;;;;;;;17.50;3.13;;;;;;;;;;5055976;28;20241;-72
2022/01/28 00:55:52;;;;;;;12.70;3.50;;;;;;;;;;5073414;28;20573;-73
2022/01/28 00:58:22;;;;;;;11.93;2.83;;;;;;;;;;5074038;28;20219;-72
2022/01/28 01:00:51;;;;;;;12.23;3.10;;;;;;;;;;5055033;28;20614;-74
2022/01/28 01:03:19;;;;;;;10.70;3.10;;;;;;;;;;5069129;28;20202;-73
2022/01/28 01:05:48;;;;;;;16.23;3.20;;;;;;;;;;5074381;28;20234;-73
2022/01/28 01:08:16;;;;;;;12.40;3.20;;;;;;;;;;5073914;28;20226;-72
2022/01/28 01:10:45;;;;;;;12.03;2.97;;;;;;;;;;5068955;28;20693;-74
2022/01/28 01:13:14;;;;;;;12.63;2.80;;;;;;;;;;5064468;28;20202;-73
2022/01/28 01:15:47;;;;;;;13.60;3.20;;;;;;;;;;5063238;28;20260;-72
2022/01/28 01:18:21;;;;;;;17.10;3.27;;;;;;;;;;5069737;28;20276;-75
2022/01/28 01:21:00;;;;;;;11.53;2.80;;;;;;;;;;5053705;28;20248;-71
2022/01/28 01:23:32;;;;;;;15.27;3.60;;;;;;;;;;5053357;28;20206;-72
2022/01/28 01:26:08;;;;;;;14.13;3.20;;;;;;;;;;5053970;28;20219;-73
2022/01/28 01:28:38;;;;;;;12.90;3.07;;;;;;;;;;5053154;28;20281;-72
2022/01/28 01:31:11;;;;;;;15.40;3.37;;;;;;;;;;5053482;28;20261;-75
2022/01/28 01:33:44;;;;;;;16.67;3.83;;;;;;;;;;5059483;28;20233;-74
2022/01/28 01:36:13;;;;;;;14.10;3.13;;;;;;;;;;5073023;28;20187;-73
2022/01/28 01:38:42;;;;;;;13.23;3.40;;;;;;;;;;5057325;28;20213;-73
2022/01/28 01:41:15;;;;;;;12.17;3.27;;;;;;;;;;5053338;28;20260;-75
2022/01/28 01:43:53;;;;;;;15.07;3.10;;;;;;;;;;5060686;28;20194;-73
2022/01/28 01:46:33;;;;;;;14.97;2.80;;;;;;;;;;5053083;28;20729;-74
2022/01/28 01:52:02;;;;;;;15.00;2.90;;;;;;;;;;5062178;28;20205;-72
2022/01/28 01:54:32;;;;;;;11.43;3.20;;;;;;;;;;5063627;28;20205;-73
2022/01/28 01:57:01;;;;;;;13.40;2.97;;;;;;;;;;5069624;28;20191;-73
2022/01/28 01:59:29;;;;;;;15.47;3.20;;;;;;;;;;5054369;28;20268;-72
2022/01/28 02:01:59;;;;;;;16.50;3.50;;;;;;;;;;5053364;28;20203;-72
2022/01/28 02:04:28;;;;;;;16.43;3.60;;;;;;;;;;5055380;28;20202;-71
2022/01/28 02:06:57;;;;;;;15.87;3.40;;;;;;;;;;5052045;28;20223;-74
2022/01/28 02:09:25;;;;;;;16.57;3.40;;;;;;;;;;5052838;28;20206;-73
2022/01/28 02:11:54;;;;;;;16.23;3.07;;;;;;;;;;5053241;28;20633;-72
2022/01/28 02:14:22;;;;;;;15.33;3.30;;;;;;;;;;5053382;28;20191;-73
2022/01/28 02:16:51;;;;;;;12.27;2.97;;;;;;;;;;5054934;28;20198;-74
2022/01/28 02:19:21;;;;;;;17.37;3.53;;;;;;;;;;5057175;28;20286;-74
2022/01/28 02:21:52;;;;;;;22.40;3.60;;;;;;;;;;5071981;28;20202;-73
2022/01/28 02:24:26;;;;;;;15.47;3.23;;;;;;;;;;5070527;28;20596;-74
2022/01/28 02:26:56;;;;;;;15.33;3.33;;;;;;;;;;5070777;28;20631;-71
2022/01/28 02:29:29;;;;;;;16.27;3.57;;;;;;;;;;5053263;28;20236;-74
2022/01/28 02:31:58;;;;;;;10.53;3.40;;;;;;;;;;5055082;28;21621;-75
2022/01/28 02:34:27;;;;;;;18.10;3.23;;;;;;;;;;5058945;28;20207;-74
2022/01/28 02:36:57;;;;;;;18.70;3.60;;;;;;;;;;5052797;28;20727;-73
2022/01/28 02:39:27;;;;;;;20.37;4.13;;;;;;;;;;5052250;28;20203;-72
2022/01/28 02:42:02;;;;;;;17.73;3.03;;;;;;;;;;5062695;28;20611;-75
2022/01/28 02:44:46;;;;;;;19.50;3.30;;;;;;;;;;5057994;28;20332;-74
2022/01/28 02:47:17;;;;;;;11.80;3.27;;;;;;;;;;5052250;28;20218;-73
2022/01/28 02:49:46;;;;;;;16.57;3.20;;;;;;;;;;5052534;28;20207;-73
2022/01/28 02:52:28;;;;;;;14.57;3.50;;;;;;;;;;5056122;28;20268;-76
2022/01/28 02:54:56;;;;;;;13.37;3.20;;;;;;;;;;5071924;28;20198;-74
2022/01/28 02:57:26;;;;;;;18.07;3.30;;;;;;;;;;5055087;28;20701;-74
2022/01/28 02:59:55;;;;;;;10.80;4.23;;;;;;;;;;5067288;28;20601;-74
2022/01/28 03:02:23;;;;;;;14.93;2.77;;;;;;;;;;5062621;28;20606;-73
2022/01/28 03:05:17;;;;;;;19.83;4.30;;;;;;;;;;5066494;28;20661;-75
2022/01/28 03:07:47;;;;;;;16.93;3.40;;;;;;;;;;5051851;28;20231;-74
2022/01/28 03:10:39;;;;;;;20.70;4.00;;;;;;;;;;5052011;28;20199;-72
2022/01/28 03:13:28;;;;;;;12.17;3.07;;;;;;;;;;5051810;28;20202;-73
2022/01/28 03:16:06;;;;;;;13.83;3.10;;;;;;;;;;5052113;28;20257;-73
2022/01/28 03:18:49;;;;;;;11.03;3.17;;;;;;;;;;5067211;28;20219;-75
2022/01/28 03:21:27;;;;;;;19.07;3.40;;;;;;;;;;5075970;28;20212;-74
2022/01/28 03:23:57;;;;;;;14.03;3.33;;;;;;;;;;5059396;28;20621;-75
2022/01/28 03:26:27;;;;;;;13.17;3.47;;;;;;;;;;5056055;28;20195;-74
2022/01/28 03:28:59;;;;;;;18.60;3.47;;;;;;;;;;5055450;28;20589;-72
2022/01/28 03:31:27;;;;;;;13.47;3.23;;;;;;;;;;5056016;28;20551;-73
2022/01/28 03:33:56;;;;;;;14.40;3.30;;;;;;;;;;5061286;28;20197;-72
2022/01/28 03:36:24;;;;;;;13.57;3.00;;;;;;;;;;5069496;28;20595;-72
2022/01/28 03:38:53;;;;;;;16.17;3.47;;;;;;;;;;5059837;28;20263;-74
2022/01/28 03:41:24;;;;;;;14.27;3.60;;;;;;;;;;5065209;28;20258;-75
2022/01/28 03:43:58;;;;;;;15.07;3.03;;;;;;;;;;5065459;28;20654;-73
2022/01/28 03:46:29;;;;;;;9.57;2.90;;;;;;;;;;5056166;28;20204;-73
2022/01/28 03:48:58;;;;;;;13.80;3.10;;;;;;;;;;5063526;28;20586;-73
2022/01/28 03:51:27;;;;;;;12.77;2.87;;;;;;;;;;5075701;28;20230;-72
2022/01/28 03:53:56;;;;;;;15.63;2.70;;;;;;;;;;5064865;28;20205;-73
2022/01/28 03:56:26;;;;;;;14.37;2.93;;;;;;;;;;5056464;28;20283;-73
2022/01/28 03:58:54;;;;;;;13.33;3.33;;;;;;;;;;5055359;28;20288;-72
2022/01/28 04:01:27;;;;;;;16.50;3.07;;;;;;;;;;5065629;28;20198;-75
2022/01/28 04:12:40;;;;;;;11.80;2.97;;;;;;;;;;5018900;28;20273;-73
2022/01/28 04:15:23;;;;;;;12.57;3.00;;;;;;;;;;5057392;28;20195;-72
2022/01/28 04:17:52;;;;;;;20.80;3.57;;;;;;;;;;5066971;28;20214;-73
2022/01/28 04:20:21;;;;;;;14.97;3.43;;;;;;;;;;5055497;28;20218;-74
2022/01/28 04:22:49;;;;;;;13.97;3.77;;;;;;;;;;5054992;28;20209;-72
2022/01/28 04:25:17;;;;;;;11.37;2.83;;;;;;;;;;5054451;28;20668;-73
2022/01/28 04:27:47;;;;;;;16.50;3.17;;;;;;;;;;5054951;28;20700;-72
2022/01/28 04:30:16;;;;;;;16.40;3.10;;;;;;;;;;5060023;28;20199;-74
2022/01/28 04:32:46;;;;;;;16.97;3.40;;;;;;;;;;5068036;28;20614;-73
2022/01/28 04:35:15;;;;;;;13.57;3.10;;;;;;;;;;5073805;28;20251;-74
2022/01/28 04:37:53;;;;;;;12.07;3.13;;;;;;;;;;5074429;28;20226;-74
2022/01/28 04:40:27;;;;;;;14.17;3.40;;;;;;;;;;5058121;28;20272;-74
2022/01/28 04:43:11;;;;;;;19.17;3.60;;;;;;;;;;5071951;28;20656;-73
2022/01/28 04:45:46;;;;;;;17.13;3.90;;;;;;;;;;5062134;28;20646;-75
2022/01/28 04:48:24;;;;;;;15.83;3.60;;;;;;;;;;5068844;28;20229;-73
2022/01/28 04:51:08;;;;;;;14.27;3.40;;;;;;;;;;5054861;28;20194;-72
2022/01/28 04:53:59;;;;;;;17.00;3.53;;;;;;;;;;5054429;28;20213;-73
2022/01/28 04:56:44;;;;;;;13.47;3.47;;;;;;;;;;5054965;28;20257;-75
2022/01/28 04:59:36;;;;;;;12.97;2.83;;;;;;;;;;5055747;28;20201;-73
2022/01/28 05:02:20;;;;;;;12.30;3.30;;;;;;;;;;5059782;28;20214;-75
2022/01/28 05:05:02;;;;;;;10.93;2.93;;;;;;;;;;5065968;28;20196;-73
2022/01/28 05:24:28;;;;;;;17.73;3.17;;;;;;;;;;5058732;28;20240;-72
2022/01/28 05:26:59;;;;;;;11.43;2.60;;;;;;;;;;5073637;28;20263;-73
2022/01/28 05:29:28;;;;;;;15.63;3.40;;;;;;;;;;5058904;28;20617;-74
2022/01/28 05:31:57;;;;;;;15.20;3.23;;;;;;;;;;5055128;28;20658;-73
2022/01/28 05:34:27;;;;;;;14.50;3.43;;;;;;;;;;5053045;28;20217;-73
2022/01/28 05:36:56;;;;;;;14.47;3.10;;;;;;;;;;5053621;28;20203;-74
2022/01/28 05:39:25;;;;;;;13.23;3.40;;;;;;;;;;5053026;28;20199;-74
2022/01/28 05:41:53;;;;;;;15.03;3.57;;;;;;;;;;5052027;28;20261;-74
2022/01/28 05:44:23;;;;;;;15.50;4.07;;;;;;;;;;5060762;28;20607;-73
2022/01/28 05:46:52;;;;;;;19.90;3.80;;;;;;;;;;5068873;28;20202;-72
2022/01/28 05:49:22;;;;;;;16.10;4.10;;;;;;;;;;5054597;28;20204;-72
2022/01/28 05:51:50;;;;;;;14.27;3.37;;;;;;;;;;5062328;28;20206;-74
2022/01/28 05:54:19;;;;;;;16.37;3.87;;;;;;;;;;5068086;28;20203;-72
2022/01/28 05:56:47;;;;;;;17.40;4.17;;;;;;;;;;5061360;28;20255;-74
2022/01/28 05:59:16;;;;;;;18.43;3.83;;;;;;;;;;5060891;28;20704;-73
2022/01/28 06:01:45;;;;;;;15.27;3.70;;;;;;;;;;5060543;28;20206;-74
2022/01/28 06:04:15;;;;;;;19.93;3.87;;;;;;;;;;5055061;28;20566;-72
2022/01/28 06:06:45;;;;;;;16.43;4.07;;;;;;;;;;5068128;28;20185;-75
2022/01/28 06:09:13;;;;;;;14.83;4.73;;;;;;;;;;5062963;28;20622;-73
2022/01/28 06:11:43;;;;;;;15.53;3.97;;;;;;;;;;5062903;28;20202;-74
2022/01/28 06:14:11;;;;;;;17.43;3.73;;;;;;;;;;5072999;28;20248;-73
2022/01/28 06:16:41;;;;;;;20.93;3.93;;;;;;;;;;5060968;28;20249;-73
2022/01/28 06:19:09;;;;;;;21.73;3.83;;;;;;;;;;5053207;28;20609;-73
2022/01/28 06:21:38;;;;;;;13.83;3.83;;;;;;;;;;5053071;28;20198;-74
2022/01/28 06:24:08;;;;;;;18.13;3.87;;;;;;;;;;5059400;28;20272;-71
2022/01/28 06:26:36;;;;;;;16.67;3.57;;;;;;;;;;5065279;28;20194;-72
2022/01/28 06:29:05;;;;;;;21.47;3.90;;;;;;;;;;5067063;28;20278;-75
2022/01/28 06:31:33;;;;;;;19.70;3.93;;;;;;;;;;5060454;28;20200;-72
2022/01/28 06:34:02;;;;;;;14.43;4.10;;;;;;;;;;5066968;28;20198;-75
2022/01/28 06:36:30;;;;;;;18.57;3.43;;;;;;;;;;5070395;28;20200;-73
2022/01/28 06:38:59;;;;;;;19.43;3.73;;;;;;;;;;5070705;28;20278;-75
2022/01/28 06:41:30;;;;;;;12.53;2.90;;;;;;;;;;5052883;28;20262;-74
2022/01/28 06:44:00;;;;;;;11.33;3.43;;;;;;;;;;5052152;28;20193;-75
2022/01/28 06:46:28;;;;;;;12.90;3.37;;;;;;;;;;5058959;28;20256;-72
2022/01/28 06:48:57;;;;;;;17.10;3.43;;;;;;;;;;5072382;28;20321;-74
2022/01/28 06:51:25;;;;;;;16.10;3.40;;;;;;;;;;5063158;28;20210;-75
2022/01/28 06:53:55;;;;;;;12.50;3.43;;;;;;;;;;5062710;28;20228;-73
2022/01/28 06:56:23;;;;;;;17.90;3.20;;;;;;;;;;5060424;28;20654;-73
2022/01/28 06:58:53;;;;;;;17.53;3.50;;;;;;;;;;5076375;28;20647;-72
2022/01/28 07:01:23;;;;;;;10.23;2.70;;;;;;;;;;5069592;28;20197;-74
2022/01/28 07:03:52;;;;;;;13.97;3.20;;;;;;;;;;5061211;28;20259;-72
2022/01/28 07:06:22;;;;;;;16.77;3.30;;;;;;;;;;5076098;28;20187;-72
2022/01/28 07:08:50;;;;;;;14.97;3.57;;;;;;;;;;5071008;28;20227;-74
2022/01/28 07:11:19;;;;;;;15.23;3.70;;;;;;;;;;5059333;28;20211;-73
2022/01/28 07:13:47;;;;;;;17.57;3.73;;;;;;;;;;5071256;28;20202;-73
2022/01/28 07:16:17;;;;;;;12.53;4.13;;;;;;;;;;5065258;28;20194;-75
2022/01/28 07:18:46;;;;;;;19.77;5.00;;;;;;;;;;5075648;28;20226;-72
2022/01/28 07:21:14;;;;;;;12.93;4.07;;;;;;;;;;5059693;28;20262;-74
2022/01/28 07:23:43;;;;;;;20.67;4.00;;;;;;;;;;5073353;28;20274;-73
2022/01/28 07:26:11;;;;;;;17.87;3.90;;;;;;;;;;5076219;28;20186;-74
2022/01/28 07:28:41;;;;;;;15.43;3.73;;;;;;;;;;5070983;28;20222;-72
2022/01/28 07:31:10;;;;;;;13.47;3.83;;;;;;;;;;5056755;28;20202;-72
2022/01/28 07:33:41;;;;;;;10.00;3.37;;;;;;;;;;5070539;28;20237;-75
2022/01/28 07:36:10;;;;;;;14.40;3.40;;;;;;;;;;5073322;28;20211;-72
2022/01/28 07:38:38;;;;;;;13.50;3.17;;;;;;;;;;5074344;28;20604;-73
2022/01/28 07:41:06;;;;;;;19.53;3.33;;;;;;;;;;5075715;28;20207;-74
2022/01/28 07:43:38;;;;;;;12.33;3.47;;;;;;;;;;5072085;28;20211;-73
2022/01/28 07:46:06;;;;;;;18.53;3.50;;;;;;;;;;5055456;28;20214;-73
2022/01/28 07:48:35;;;;;;;16.10;3.90;;;;;;;;;;5055341;28;20235;-75
2022/01/28 07:51:05;;;;;;;18.87;3.70;;;;;;;;;;5054179;28;20223;-72
2022/01/28 07:53:33;;;;;;;12.93;3.57;;;;;;;;;;5056055;28;20217;-71
2022/01/28 07:56:02;;;;;;;15.40;3.83;;;;;;;;;;5055614;28;20834;-74
2022/01/28 07:58:30;;;;;;;17.37;4.40;;;;;;;;;;5056014;28;20763;-76
2022/01/28 08:00:59;;;;;;;12.97;3.73;;;;;;;;;;5055579;28;20207;-75
2022/01/28 08:03:29;;;;;;;18.13;3.93;;;;;;;;;;5065984;28;20210;-75
2022/01/28 08:05:57;;;;;;;19.27;4.00;;;;;;;;;;5074893;28;20198;-73
2022/01/28 08:08:27;;;;;;;17.70;3.90;;;;;;;;;;5075377;28;20295;-72
2022/01/28 08:10:56;;;;;;;14.77;3.93;;;;;;;;;;5075109;28;20234;-72
2022/01/28 08:13:24;;;;;;;16.67;5.23;;;;;;;;;;5069615;28;20202;-74
2022/01/28 08:15:53;;;;;;;18.17;4.13;;;;;;;;;;5055229;28;20261;-75
2022/01/28 08:18:21;;;;;;;16.67;4.27;;;;;;;;;;5054744;28;20231;-75
2022/01/28 08:20:50;;;;;;;19.70;4.90;;;;;;;;;;5066457;28;20230;-73
2022/01/28 08:23:18;;;;;;;19.80;4.23;;;;;;;;;;5063952;28;20615;-74
2022/01/28 08:25:51;;;;;;;20.50;5.03;;;;;;;;;;5060315;28;20191;-73
2022/01/28 08:28:19;;;;;;;18.03;4.27;;;;;;;;;;5060284;28;20273;-73
2022/01/28 08:30:47;;;;;;;21.90;4.83;;;;;;;;;;5055071;28;20288;-74
2022/01/28 08:33:19;;;;;;;16.77;4.50;;;;;;;;;;5058601;28;20203;-73
2022/01/28 08:35:52;;;;;;;17.43;3.80;;;;;;;;;;5059772;28;20261;-75
2022/01/28 08:38:27;;;;;;;16.63;4.53;;;;;;;;;;5058262;28;20218;-73
2022/01/28 08:40:59;;;;;;;15.47;3.73;;;;;;;;;;5074311;28;20202;-76
2022/01/28 08:43:27;;;;;;;17.47;4.10;;;;;;;;;;5074798;28;20203;-74
2022/01/28 08:45:56;;;;;;;19.03;4.33;;;;;;;;;;5074399;28;20191;-72
2022/01/28 08:48:24;;;;;;;16.80;3.73;;;;;;;;;;5074142;28;20222;-72
2022/01/28 08:50:53;;;;;;;17.73;3.90;;;;;;;;;;5059643;28;20584;-73
2022/01/28 08:53:21;;;;;;;18.43;3.87;;;;;;;;;;5054377;28;20230;-73
2022/01/28 08:55:50;;;;;;;22.27;4.60;;;;;;;;;;5054489;28;20225;-72
2022/01/28 08:58:24;;;;;;;17.07;4.90;;;;;;;;;;5070985;28;20222;-75
2022/01/28 09:00:53;;;;;;;20.83;4.17;;;;;;;;;;5074511;28;20202;-72
2022/01/28 09:03:22;;;;;;;15.77;3.70;;;;;;;;;;5057944;28;20542;-74
2022/01/28 09:05:51;;;;;;;16.60;4.13;;;;;;;;;;5070615;28;20197;-73
2022/01/28 09:08:20;;;;;;;16.03;3.90;;;;;;;;;;5066457;28;20686;-74
2022/01/28 09:10:58;;;;;;;15.63;4.00;;;;;;;;;;5054281;28;20255;-74
2022/01/28 09:13:37;;;;;;;17.67;4.10;;;;;;;;;;5053938;28;20210;-73
2022/01/28 09:16:06;;;;;;;14.13;3.73;;;;;;;;;;5057989;28;20228;-73
2022/01/28 09:18:35;;;;;;;16.93;4.03;;;;;;;;;;5069347;28;20215;-74
2022/01/28 09:21:03;;;;;;;21.97;3.77;;;;;;;;;;5069281;28;20217;-74
2022/01/28 09:23:32;;;;;;;20.40;4.33;;;;;;;;;;5054606;28;20207;-73
2022/01/28 09:26:01;;;;;;;18.13;4.07;;;;;;;;;;5056507;28;20207;-73
2022/01/28 09:28:31;;;;;;;22.27;4.17;;;;;;;;;;5073669;28;20222;-73
2022/01/28 09:30:59;;;;;;;24.50;4.57;;;;;;;;;;5072772;28;20288;-73
2022/01/28 09:33:37;;;;;;;19.03;3.97;;;;;;;;;;5066698;28;20285;-74
2022/01/28 09:36:06;;;;;;;17.63;4.20;;;;;;;;;;5071568;28;20186;-72
2022/01/28 09:38:35;;;;;;;17.03;4.03;;;;;;;;;;5073451;28;20222;-72
2022/01/28 09:41:05;;;;;;;21.23;4.23;;;;;;;;;;5059473;28;20573;-75
2022/01/28 09:43:36;;;;;;;17.93;4.17;;;;;;;;;;5060797;28;20540;-73
2022/01/28 09:46:04;;;;;;;17.67;4.60;;;;;;;;;;5052806;28;20218;-74
2022/01/28 09:48:33;;;;;;;20.67;4.70;;;;;;;;;;5053277;28;20281;-73
2022/01/28 09:51:03;;;;;;;16.60;4.10;;;;;;;;;;5053044;28;20227;-74
2022/01/28 09:53:31;;;;;;;23.17;4.50;;;;;;;;;;5052937;28;20241;-73
2022/01/28 09:56:00;;;;;;;21.97;4.67;;;;;;;;;;5052989;28;20663;-74
2022/01/28 09:58:29;;;;;;;15.00;3.63;;;;;;;;;;5053147;28;20223;-75
2022/01/28 10:01:04;;;;;;;14.23;3.73;;;;;;;;;;5052726;28;20285;-73
2022/01/28 10:03:36;;;;;;;20.57;4.37;;;;;;;;;;5065661;28;20206;-72
2022/01/28 10:06:05;;;;;;;16.70;3.93;;;;;;;;;;5072708;28;20573;-74
2022/01/28 10:08:34;;;;;;;16.13;3.93;;;;;;;;;;5072892;28;20292;-72
2022/01/28 10:11:05;;;;;;;15.00;3.87;;;;;;;;;;5072732;28;20227;-72
2022/01/28 10:13:38;;;;;;;17.13;4.00;;;;;;;;;;5069903;28;20191;-74
2022/01/28 10:16:10;;;;;;;16.70;3.97;;;;;;;;;;5055727;28;20253;-72
2022/01/28 10:18:41;;;;;;;21.90;4.30;;;;;;;;;;5052669;28;20314;-73
2022/01/28 10:21:21;;;;;;;16.73;4.13;;;;;;;;;;5052131;28;20203;-75
2022/01/28 10:24:06;;;;;;;16.10;4.23;;;;;;;;;;5053743;28;20611;-73
2022/01/28 10:26:36;;;;;;;16.23;4.03;;;;;;;;;;5058318;28;20207;-73
2022/01/28 10:29:06;;;;;;;20.47;5.30;;;;;;;;;;5061662;28;20214;-73
2022/01/28 10:31:37;;;;;;;13.27;3.73;;;;;;;;;;5059884;28;20248;-72
2022/01/28 10:34:13;;;;;;;14.83;3.73;;;;;;;;;;5068937;28;20198;-72
2022/01/28 10:36:43;;;;;;;17.87;3.90;;;;;;;;;;5071948;28;20238;-74
2022/01/28 10:39:16;;;;;;;18.87;3.70;;;;;;;;;;5064985;28;20206;-74
2022/01/28 10:41:51;;;;;;;20.10;4.30;;;;;;;;;;5059641;28;20288;-72
2022/01/28 10:44:19;;;;;;;16.00;3.70;;;;;;;;;;5071314;28;20194;-73
2022/01/28 10:46:59;;;;;;;17.70;3.90;;;;;;;;;;5072393;28;20680;-75
2022/01/28 10:49:30;;;;;;;18.93;4.00;;;;;;;;;;5071351;28;20622;-72
2022/01/28 10:52:04;;;;;;;17.60;4.20;;;;;;;;;;5059826;28;20218;-74
2022/01/28 10:54:33;;;;;;;15.90;3.70;;;;;;;;;;5066190;28;20256;-74
2022/01/28 10:57:02;;;;;;;16.60;4.27;;;;;;;;;;5062736;28;20286;-75
2022/01/28 10:59:32;;;;;;;17.63;4.27;;;;;;;;;;5071855;28;20198;-74
2022/01/28 11:02:02;;;;;;;23.83;5.40;;;;;;;;;;5066801;28;20195;-74
2022/01/28 11:04:30;;;;;;;19.53;4.00;;;;;;;;;;5062464;28;20592;-73
2022/01/28 11:07:00;;;;;;;19.57;4.63;;;;;;;;;;5060278;28;20195;-73
2022/01/28 11:09:30;;;;;;;21.77;4.60;;;;;;;;;;5055094;28;20207;-74
2022/01/28 11:12:00;;;;;;;18.87;4.23;;;;;;;;;;5071008;28;20707;-72
2022/01/28 11:14:29;;;;;;;20.10;4.57;;;;;;;;;;5062475;28;20199;-73
2022/01/28 11:16:57;;;;;;;20.13;3.97;;;;;;;;;;5066084;28;20214;-72
2022/01/28 11:19:29;;;;;;;16.50;4.33;;;;;;;;;;5066200;28;20226;-75
2022/01/28 11:22:08;;;;;;;18.77;4.47;;;;;;;;;;5068258;28;20190;-74
2022/01/28 11:24:54;;;;;;;16.17;3.63;;;;;;;;;;5052122;28;20622;-73
2022/01/28 11:27:25;;;;;;;21.13;4.40;;;;;;;;;;5061825;28;20276;-72
2022/01/28 11:30:14;;;;;;;18.63;4.77;;;;;;;;;;5067147;28;20202;-74
2022/01/28 11:32:53;;;;;;;18.37;4.50;;;;;;;;;;5067186;28;20226;-73
2022/01/28 11:35:24;;;;;;;18.80;4.47;;;;;;;;;;5060440;28;20203;-74
2022/01/28 11:37:56;;;;;;;17.57;4.00;;;;;;;;;;5053378;28;20227;-73
2022/01/28 11:40:25;;;;;;;22.13;4.60;;;;;;;;;;5073610;28;20210;-73
2022/01/28 11:43:17;;;;;;;23.57;4.20;;;;;;;;;;5074758;28;20260;-72
2022/01/28 11:45:45;;;;;;;20.77;4.57;;;;;;;;;;5065509;28;20194;-73
2022/01/28 11:48:14;;;;;;;22.93;4.30;;;;;;;;;;5075084;28;20257;-74
2022/01/28 11:50:52;;;;;;;18.43;3.87;;;;;;;;;;5073947;28;20206;-74
2022/01/28 11:53:23;;;;;;;18.80;4.17;;;;;;;;;;5074972;28;20704;-74
2022/01/28 11:56:02;;;;;;;15.90;3.77;;;;;;;;;;5071024;28;20203;-73
2022/01/28 11:58:49;;;;;;;16.10;4.17;;;;;;;;;;5071444;28;20214;-73
2022/01/28 12:01:18;;;;;;;14.30;4.00;;;;;;;;;;5058656;28;20198;-73
2022/01/28 12:03:46;;;;;;;19.03;4.07;;;;;;;;;;5063358;28;20265;-73
2022/01/28 12:06:17;;;;;;;15.77;4.10;;;;;;;;;;5064649;28;20202;-74
2022/01/28 12:08:46;;;;;;;18.10;4.20;;;;;;;;;;5070292;28;20244;-74
2022/01/28 12:11:35;;;;;;;19.57;4.60;;;;;;;;;;5070906;28;20198;-74
2022/01/28 12:14:18;;;;;;;20.27;4.77;;;;;;;;;;5068831;28;20773;-74
2022/01/28 12:16:48;;;;;;;16.67;4.23;;;;;;;;;;5072365;28;20701;-74
2022/01/28 12:19:18;;;;;;;17.90;4.20;;;;;;;;;;5056993;28;20291;-73
2022/01/28 12:22:10;;;;;;;23.37;4.43;;;;;;;;;;5064228;28;20203;-74
2022/01/28 12:24:39;;;;;;;14.93;3.97;;;;;;;;;;5071184;28;20674;-73
2022/01/28 12:27:09;;;;;;;18.00;4.40;;;;;;;;;;5073820;28;20215;-73
2022/01/28 12:29:38;;;;;;;13.27;3.33;;;;;;;;;;5072010;28;20198;-73
2022/01/28 12:32:07;;;;;;;19.73;4.40;;;;;;;;;;5064087;28;20222;-72
2022/01/28 12:34:36;;;;;;;15.40;4.20;;;;;;;;;;5072985;28;20229;-75
2022/01/28 12:37:04;;;;;;;14.20;4.03;;;;;;;;;;5074020;28;20190;-74
2022/01/28 12:39:39;;;;;;;13.33;3.97;;;;;;;;;;5063690;28;20626;-71
2022/01/28 12:42:22;;;;;;;18.63;4.07;;;;;;;;;;5057760;28;20282;-72
2022/01/28 12:44:51;;;;;;;20.00;3.67;;;;;;;;;;5069794;28;20190;-73
2022/01/28 12:47:20;;;;;;;21.73;4.27;;;;;;;;;;5066973;28;20272;-73
2022/01/28 12:49:54;;;;;;;16.77;4.13;;;;;;;;;;5073435;28;20247;-73
2022/01/28 12:52:23;;;;;;;18.03;4.53;;;;;;;;;;5073812;28;20222;-72
2022/01/28 12:54:53;;;;;;;19.80;4.13;;;;;;;;;;5073211;28;20205;-72
2022/01/28 12:57:22;;;;;;;18.50;3.83;;;;;;;;;;5073687;28;20226;-73
2022/01/28 12:59:51;;;;;;;18.67;4.40;;;;;;;;;;5067796;28;20202;-72
2022/01/28 13:02:20;;;;;;;18.00;3.70;;;;;;;;;;5068521;28;20213;-74
2022/01/28 13:05:10;;;;;;;18.03;4.10;;;;;;;;;;5071464;28;20203;-72
2022/01/28 13:10:31;;;;;;;14.33;3.53;;;;;;;;;;5069266;28;20198;-73
2022/01/28 13:13:04;;;;;;;14.63;3.87;;;;;;;;;;5056797;28;20633;-72
2022/01/28 13:15:32;;;;;;;17.63;3.83;;;;;;;;;;5066662;28;20225;-72
2022/01/28 13:18:02;;;;;;;14.03;3.50;;;;;;;;;;5067238;28;20297;-74
2022/01/28 13:20:33;;;;;;;17.63;4.10;;;;;;;;;;5072123;28;20202;-73
2022/01/28 13:23:02;;;;;;;17.77;3.53;;;;;;;;;;5067325;28;20205;-75
2022/01/28 13:25:32;;;;;;;16.50;3.87;;;;;;;;;;5061900;28;20203;-72
2022/01/28 13:28:03;;;;;;;12.53;3.23;;;;;;;;;;5069415;28;20222;-74
2022/01/28 13:30:37;;;;;;;11.30;3.47;;;;;;;;;;5068707;28;20194;-73
2022/01/28 13:33:07;;;;;;;12.57;3.50;;;;;;;;;;5064608;28;20227;-73
2022/01/28 13:35:39;;;;;;;19.23;3.83;;;;;;;;;;5057999;28;20571;-73
2022/01/28 13:38:15;;;;;;;16.33;3.53;;;;;;;;;;5063528;28;20277;-72
2022/01/28 13:40:45;;;;;;;13.73;3.50;;;;;;;;;;5064261;28;20202;-74
2022/01/28 13:43:15;;;;;;;20.13;4.10;;;;;;;;;;5062184;28;20205;-73
2022/01/28 13:45:48;;;;;;;21.83;5.03;;;;;;;;;;5062482;28;20199;-72
2022/01/28 13:48:20;;;;;;;25.53;7.77;;;;;;;;;;5059985;28;20226;-72
2022/01/28 13:50:49;;;;;;;20.97;6.33;;;;;;;;;;5066670;28;20195;-74
2022/01/28 13:56:10;;;;;;;18.83;4.27;;;;;;;;;;5069084;28;20609;-74
2022/01/28 13:58:48;;;;;;;17.97;4.00;;;;;;;;;;5070465;28;20764;-74
2022/01/28 14:01:17;;;;;;;22.23;4.63;;;;;;;;;;5071130;28;20608;-73
2022/01/28 14:03:51;;;;;;;16.60;3.77;;;;;;;;;;5063422;28;20238;-73
2022/01/28 14:06:20;;;;;;;14.70;3.97;;;;;;;;;;5059455;28;20202;-73
2022/01/28 14:09:11;;;;;;;18.50;4.33;;;;;;;;;;5057898;28;20251;-73
2022/01/28 14:11:43;;;;;;;19.70;4.03;;;;;;;;;;5059958;28;20962;-74
2022/01/28 14:14:15;;;;;;;13.77;3.83;;;;;;;;;;5061443;28;20617;-73
2022/01/28 14:16:44;;;;;;;21.40;4.07;;;;;;;;;;5069766;28;20538;-73
2022/01/28 14:19:13;;;;;;;15.47;4.00;;;;;;;;;;5067857;28;20199;-72
2022/01/28 14:21:43;;;;;;;21.13;4.33;;;;;;;;;;5066355;28;20205;-75
2022/01/28 14:24:14;;;;;;;16.93;3.63;;;;;;;;;;5059858;28;20210;-74
2022/01/28 14:26:44;;;;;;;13.20;3.33;;;;;;;;;;5062328;28;20199;-75
2022/01/28 14:29:25;;;;;;;19.17;3.87;;;;;;;;;;5055945;28;20240;-71
2022/01/28 14:31:54;;;;;;;13.90;4.03;;;;;;;;;;5057563;28;20214;-73
2022/01/28 14:34:23;;;;;;;13.07;3.43;;;;;;;;;;5066530;28;20237;-73
2022/01/28 14:36:52;;;;;;;21.80;4.63;;;;;;;;;;5071995;28;20194;-76
2022/01/28 14:39:21;;;;;;;17.00;4.20;;;;;;;;;;5063810;28;20289;-73
2022/01/28 14:41:53;;;;;;;16.63;3.80;;;;;;;;;;5066422;28;20240;-72
2022/01/28 14:44:22;;;;;;;19.20;3.97;;;;;;;;;;5058825;28;20667;-72
2022/01/28 14:46:50;;;;;;;16.50;3.77;;;;;;;;;;5069127;28;20615;-74
2022/01/28 14:49:19;;;;;;;14.43;3.77;;;;;;;;;;5066957;28;20240;-74
2022/01/28 14:51:52;;;;;;;19.30;4.37;;;;;;;;;;5064294;28;20219;-73
2022/01/28 14:54:22;;;;;;;18.23;4.00;;;;;;;;;;5066121;28;20701;-72
2022/01/28 14:56:51;;;;;;;24.63;4.10;;;;;;;;;;5067551;28;20199;-75
2022/01/28 14:59:20;;;;;;;18.03;3.83;;;;;;;;;;5063387;28;20206;-74
2022/01/28 15:01:49;;;;;;;15.97;3.67;;;;;;;;;;5056708;28;20203;-73
2022/01/28 15:04:18;;;;;;;17.10;3.87;;;;;;;;;;5057459;28;20221;-73
2022/01/28 15:06:47;;;;;;;19.47;4.10;;;;;;;;;;5054316;28;20264;-75
2022/01/28 15:09:18;;;;;;;20.33;4.13;;;;;;;;;;5063798;28;20580;-74
2022/01/28 15:11:47;;;;;;;14.73;3.90;;;;;;;;;;5054379;28;20201;-74
2022/01/28 15:14:18;;;;;;;16.33;3.70;;;;;;;;;;5059462;28;20241;-73
2022/01/28 15:16:47;;;;;;;16.67;3.83;;;;;;;;;;5063322;28;20198;-74
2022/01/28 15:19:17;;;;;;;17.40;4.13;;;;;;;;;;5068600;28;20650;-75
2022/01/28 15:21:50;;;;;;;13.90;3.80;;;;;;;;;;5056695;28;20225;-74
2022/01/28 15:24:19;;;;;;;19.73;3.93;;;;;;;;;;5065729;28;20198;-72
2022/01/28 15:26:49;;;;;;;17.17;3.80;;;;;;;;;;5069799;28;20191;-72
2022/01/28 15:29:47;;;;;;;14.47;3.53;;;;;;;;;;5064091;28;20209;-74
2022/01/28 15:35:30;;;;;;;17.60;3.80;;;;;;;;;;5068193;28;20272;-74
2022/01/28 15:37:58;;;;;;;17.13;4.40;;;;;;;;;;5069002;28;20214;-75
2022/01/28 15:40:27;;;;;;;12.67;3.60;;;;;;;;;;5055376;28;20203;-72
2022/01/28 15:43:00;;;;;;;17.50;3.53;;;;;;;;;;5055242;28;20203;-74
2022/01/28 15:45:32;;;;;;;13.40;3.67;;;;;;;;;;5054306;28;20195;-72
2022/01/28 15:48:01;;;;;;;15.60;3.60;;;;;;;;;;5054523;28;20219;-73
2022/01/28 15:50:30;;;;;;;20.43;4.10;;;;;;;;;;5054035;28;20203;-75